Time;durP1;ratioP1;P1;durP2;ratioP2;P2;SDS_P1;SDS_P2;PMS_P1;PMS_P2;Temp;Humidity;BMP_temperature;BMP_pressure;BME280_temperature;BME280_humidity;BME280_pressure;Samples;Min_cycle;Max_cycle;Signal;HPM_P1;HPM_P2
2023/01/20 00:01:23;;;;;;;6.25;2.50;;;-0.50;99.90;;;;;;5027993;28;20036;-62
2023/01/20 00:03:50;;;;;;;6.25;2.80;;;-0.40;99.90;;;;;;5006561;28;20159;-63
2023/01/20 00:06:16;;;;;;;4.15;2.13;;;-0.50;99.90;;;;;;4992747;28;20045;-63
2023/01/20 00:08:42;;;;;;;3.97;2.55;;;-0.60;99.90;;;;;;5027902;28;20158;-63
2023/01/20 00:11:10;;;;;;;7.20;3.30;;;-0.50;99.90;;;;;;5027723;28;20322;-64
2023/01/20 00:13:37;;;;;;;9.52;3.13;;;-0.60;99.90;;;;;;5027505;28;20363;-63
2023/01/20 00:16:08;;;;;;;6.43;2.72;;;-0.60;99.90;;;;;;4992991;28;20046;-63
2023/01/20 00:18:34;;;;;;;6.57;2.63;;;-0.70;99.90;;;;;;5027692;28;20049;-63
2023/01/20 00:21:08;;;;;;;6.43;3.17;;;-0.70;99.90;;;;;;5028039;28;20036;-63
2023/01/20 00:23:34;;;;;;;7.00;2.97;;;-0.70;99.90;;;;;;5010147;28;20039;-63
2023/01/20 00:26:05;;;;;;;5.32;3.10;;;-0.70;99.90;;;;;;5010075;28;20753;-62
2023/01/20 00:28:31;;;;;;;6.32;2.88;;;-0.80;99.90;;;;;;5009810;28;20033;-63
2023/01/20 00:30:57;;;;;;;7.43;3.25;;;-0.80;99.90;;;;;;5013048;28;20102;-62
2023/01/20 00:33:23;;;;;;;6.22;3.38;;;-0.70;99.90;;;;;;5012982;28;20132;-63
2023/01/20 00:35:48;;;;;;;5.45;3.10;;;-0.80;99.90;;;;;;5013834;28;20419;-63
2023/01/20 00:38:14;;;;;;;4.60;2.90;;;-0.80;99.90;;;;;;4979880;28;20175;-64
2023/01/20 00:40:40;;;;;;;5.70;3.45;;;-0.70;99.90;;;;;;5031674;28;20036;-63
2023/01/20 00:43:06;;;;;;;7.63;4.00;;;-0.80;99.90;;;;;;4996244;28;20036;-63
2023/01/20 00:45:31;;;;;;;5.90;3.55;;;-0.70;99.90;;;;;;5014527;28;20091;-63
2023/01/20 00:47:57;;;;;;;6.00;3.90;;;-0.90;99.90;;;;;;4980583;28;20291;-63
2023/01/20 00:50:23;;;;;;;7.82;3.83;;;-0.80;1.00;;;;;;5032042;28;20039;-64
2023/01/20 00:52:48;;;;;;;9.10;3.90;;;-0.80;1.00;;;;;;4995359;28;20045;-64
2023/01/20 00:55:14;;;;;;;5.47;3.50;;;-0.70;1.00;;;;;;4994392;28;20406;-64
2023/01/20 00:57:40;;;;;;;7.90;4.53;;;-1.00;1.00;;;;;;5027055;28;20075;-64
2023/01/20 01:00:06;;;;;;;6.38;4.70;;;-0.90;1.00;;;;;;5028041;28;20041;-63
2023/01/20 01:02:37;;;;;;;9.07;4.07;;;-0.90;1.00;;;;;;4994281;28;20303;-64
2023/01/20 01:05:03;;;;;;;5.72;4.60;;;-1.00;1.00;;;;;;5012832;28;20052;-63
2023/01/20 01:07:28;;;;;;;7.85;5.20;;;-1.00;1.00;;;;;;5016394;28;20810;-63
2023/01/20 01:09:54;;;;;;;12.05;5.10;;;-1.00;1.00;;;;;;5001042;28;20155;-65
2023/01/20 01:12:20;;;;;;;8.27;4.82;;;-1.00;99.90;;;;;;5015554;28;20072;-64
2023/01/20 01:14:46;;;;;;;12.23;5.68;;;-1.00;1.00;;;;;;5034327;28;20045;-62
2023/01/20 01:17:11;;;;;;;10.55;5.50;;;-1.00;99.90;;;;;;5033287;28;20570;-63
2023/01/20 01:19:37;;;;;;;8.65;5.40;;;-1.10;1.00;;;;;;5015479;28;20045;-64
2023/01/20 01:22:03;;;;;;;11.00;6.68;;;-1.10;1.00;;;;;;4999587;28;20041;-63
2023/01/20 01:24:28;;;;;;;9.63;6.35;;;-1.00;1.00;;;;;;5015901;28;20032;-62
2023/01/20 01:26:54;;;;;;;9.80;6.50;;;-1.10;1.00;;;;;;5033912;28;20041;-63
2023/01/20 01:29:20;;;;;;;8.15;6.20;;;-1.10;1.00;;;;;;5032890;28;20422;-63
2023/01/20 01:31:46;;;;;;;10.70;6.90;;;-1.20;99.90;;;;;;5016237;28;20044;-62
2023/01/20 01:34:11;;;;;;;14.13;8.43;;;-1.20;99.90;;;;;;4999604;28;20084;-61
2023/01/20 01:36:37;;;;;;;12.20;8.10;;;-1.30;99.90;;;;;;5016175;28;20037;-64
2023/01/20 01:39:03;;;;;;;10.38;7.32;;;-1.20;1.00;;;;;;4998765;28;20506;-62
2023/01/20 01:41:29;;;;;;;10.98;8.15;;;-1.10;1.00;;;;;;4999284;28;20036;-62
2023/01/20 01:44:10;;;;;;;12.77;8.55;;;-1.10;1.00;;;;;;5014984;28;20106;-63
2023/01/20 01:46:36;;;;;;;16.08;9.43;;;-1.10;1.00;;;;;;5034411;28;20521;-63
2023/01/20 01:49:40;;;;;;;18.23;10.25;;;-1.10;20.50;;;;;;5016175;28;20041;-63
2023/01/20 01:52:08;;;;;;;14.90;10.77;;;-1.00;25.00;;;;;;5027158;28;20041;-62
2023/01/20 01:54:41;;;;;;;15.48;11.32;;;-0.90;37.20;;;;;;4989775;28;20043;-62
2023/01/20 01:57:08;;;;;;;19.65;12.68;;;-1.10;36.50;;;;;;5034381;28;20051;-62
2023/01/20 01:59:35;;;;;;;22.50;14.23;;;-0.90;4.70;;;;;;5034516;28;20534;-63
2023/01/20 02:02:01;;;;;;;23.38;14.27;;;-1.00;1.00;;;;;;5033191;28;20051;-62
2023/01/20 02:04:27;;;;;;;26.95;15.70;;;-0.90;1.00;;;;;;5016477;28;20037;-63
2023/01/20 02:07:17;;;;;;;27.27;15.55;;;-1.00;1.00;;;;;;5034550;28;20422;-61
2023/01/20 02:09:43;;;;;;;31.50;16.75;;;-0.90;67.80;;;;;;5033194;28;20076;-62
2023/01/20 02:12:16;;;;;;;35.10;19.17;;;-0.80;91.30;;;;;;4998166;28;20055;-62
2023/01/20 02:14:51;;;;;;;26.58;14.93;;;-0.80;99.90;;;;;;5034019;28;20121;-62
2023/01/20 02:17:41;;;;;;;27.60;14.95;;;-0.90;75.10;;;;;;5015581;28;20041;-63
2023/01/20 02:20:26;;;;;;;26.05;14.45;;;-0.90;93.10;;;;;;5033051;28;20589;-63
2023/01/20 02:23:19;;;;;;;29.75;16.02;;;-0.90;99.90;;;;;;5016410;28;20793;-62
2023/01/20 02:26:12;;;;;;;34.92;17.00;;;-0.90;99.90;;;;;;5033778;28;20037;-63
2023/01/20 02:28:37;;;;;;;40.63;19.23;;;-1.00;91.10;;;;;;5016402;28;20207;-63
2023/01/20 02:31:12;;;;;;;43.72;20.60;;;-0.80;87.70;;;;;;5033044;28;20496;-63
2023/01/20 02:33:59;;;;;;;47.50;21.45;;;-0.90;93.30;;;;;;5015649;28;20548;-62
2023/01/20 02:36:32;;;;;;;40.97;21.05;;;-0.70;99.90;;;;;;5033923;28;20051;-64
2023/01/20 02:39:26;;;;;;;39.90;19.63;;;-0.70;99.90;;;;;;5015018;28;20048;-63
2023/01/20 02:42:09;;;;;;;45.28;20.63;;;-0.80;99.90;;;;;;5014833;28;20550;-63
2023/01/20 02:45:10;;;;;;;45.92;20.60;;;-0.70;99.90;;;;;;5014360;28;20114;-63
2023/01/20 02:47:42;;;;;;;48.65;23.00;;;-0.60;99.90;;;;;;5030512;28;20453;-63
2023/01/20 02:50:08;;;;;;;54.08;23.42;;;-0.80;99.90;;;;;;5014231;28;20044;-65
2023/01/20 02:52:38;;;;;;;47.78;21.90;;;-0.80;99.90;;;;;;5000038;28;20033;-63
2023/01/20 02:55:08;;;;;;;52.58;21.88;;;-0.80;99.90;;;;;;5033900;28;20044;-64
2023/01/20 02:57:46;;;;;;;58.35;22.92;;;-0.70;99.90;;;;;;5013103;28;20055;-63
2023/01/20 03:00:21;;;;;;;47.65;16.92;;;-0.60;99.90;;;;;;5013814;28;20037;-63
2023/01/20 03:02:51;;;;;;;62.75;24.85;;;-0.70;99.90;;;;;;4995614;28;20057;-63
2023/01/20 03:05:27;;;;;;;112.50;26.38;;;-0.70;99.90;;;;;;5014839;28;20296;-63
2023/01/20 03:07:54;;;;;;;99.13;26.75;;;-0.50;99.90;;;;;;5032967;28;20127;-64
2023/01/20 03:10:23;;;;;;;117.88;28.83;;;-0.70;99.90;;;;;;5014088;28;20049;-62
2023/01/20 03:13:08;;;;;;;92.18;29.55;;;-0.60;99.90;;;;;;5016331;28;20041;-64
2023/01/20 03:15:50;;;;;;;85.68;29.92;;;-0.50;99.90;;;;;;4997628;28;20184;-62
2023/01/20 03:18:16;;;;;;;76.65;28.45;;;-0.60;99.90;;;;;;5015113;28;20661;-63
2023/01/20 03:20:42;;;;;;;71.35;28.98;;;-0.60;99.90;;;;;;4999018;28;20107;-62
2023/01/20 03:23:07;;;;;;;62.70;24.90;;;-0.50;99.90;;;;;;5015228;28;20099;-62
2023/01/20 03:25:33;;;;;;;72.18;27.60;;;-0.40;99.90;;;;;;5032772;28;20048;-62
2023/01/20 03:27:59;;;;;;;76.65;29.67;;;-0.40;99.90;;;;;;5013888;28;20033;-62
2023/01/20 03:30:25;;;;;;;61.08;26.25;;;-0.50;99.90;;;;;;5032670;28;20390;-63
2023/01/20 03:32:52;;;;;;;64.53;29.00;;;-0.50;99.90;;;;;;5031243;28;20316;-62
2023/01/20 03:35:18;;;;;;;61.22;27.13;;;-0.30;99.90;;;;;;4998570;28;20525;-63
2023/01/20 03:37:44;;;;;;;59.45;26.83;;;-0.30;99.90;;;;;;5032486;28;20088;-63
2023/01/20 03:40:12;;;;;;;61.17;26.77;;;-0.20;99.90;;;;;;5014148;28;20040;-62
2023/01/20 03:43:22;;;;;;;61.53;27.27;;;-0.20;99.90;;;;;;5015135;28;20071;-63
2023/01/20 03:46:11;;;;;;;59.92;26.85;;;-0.30;99.90;;;;;;5029562;28;20045;-62
2023/01/20 03:48:48;;;;;;;54.90;24.83;;;-0.20;99.90;;;;;;4998123;28;20040;-63
2023/01/20 03:51:14;;;;;;;57.97;26.27;;;-0.20;99.90;;;;;;5014448;28;20049;-62
2023/01/20 03:53:48;;;;;;;58.53;27.10;;;-0.20;99.90;;;;;;5013690;28;20519;-63
2023/01/20 03:56:14;;;;;;;63.03;27.60;;;0.00;99.90;;;;;;5030857;28;20054;-63
2023/01/20 03:58:44;;;;;;;54.00;25.25;;;-0.10;99.90;;;;;;5014575;28;20036;-62
2023/01/20 04:01:12;;;;;;;60.90;28.23;;;-0.20;99.90;;;;;;5032021;28;20052;-63
2023/01/20 04:03:43;;;;;;;64.63;30.17;;;-0.20;99.90;;;;;;5014379;28;20098;-63
2023/01/20 04:06:11;;;;;;;57.42;28.23;;;-0.10;99.90;;;;;;5031453;28;20044;-64
2023/01/20 04:08:44;;;;;;;63.30;28.45;;;0.00;99.90;;;;;;5015384;28;20056;-61
2023/01/20 04:11:10;;;;;;;61.90;29.70;;;0.00;99.90;;;;;;5031887;28;20076;-62
2023/01/20 04:13:36;;;;;;;57.03;27.17;;;0.00;99.90;;;;;;5032750;28;20184;-63
2023/01/20 04:16:09;;;;;;;61.88;30.00;;;-0.20;99.90;;;;;;4996401;28;20041;-63
2023/01/20 04:18:40;;;;;;;62.15;31.58;;;0.00;99.90;;;;;;4998617;28;20418;-62
2023/01/20 04:21:09;;;;;;;59.28;31.35;;;-0.10;99.90;;;;;;5012781;28;20534;-62
2023/01/20 04:23:40;;;;;;;57.50;29.27;;;0.00;99.90;;;;;;5031195;28;20034;-63
2023/01/20 04:26:06;;;;;;;59.67;30.45;;;0.10;99.90;;;;;;5031740;28;20076;-63
2023/01/20 04:28:32;;;;;;;42.45;21.75;;;-0.20;99.90;;;;;;5013001;28;20117;-63
2023/01/20 04:30:57;;;;;;;51.05;27.42;;;-0.20;99.90;;;;;;5031991;28;20179;-63
2023/01/20 04:33:23;;;;;;;57.45;32.63;;;0.10;99.90;;;;;;5031674;28;20063;-64
2023/01/20 04:35:49;;;;;;;57.13;30.23;;;0.00;99.90;;;;;;5014107;28;20037;-64
2023/01/20 04:38:14;;;;;;;58.00;32.08;;;-0.10;99.90;;;;;;5031734;28;20441;-63
2023/01/20 04:40:40;;;;;;;61.42;33.58;;;0.00;99.90;;;;;;5017474;28;20249;-62
2023/01/20 04:43:06;;;;;;;63.30;34.08;;;0.00;99.90;;;;;;5017673;28;20045;-62
2023/01/20 04:45:32;;;;;;;58.30;33.63;;;0.00;99.90;;;;;;5035624;28;20029;-62
2023/01/20 04:47:57;;;;;;;58.17;31.05;;;-0.20;99.90;;;;;;4999849;28;20048;-63
2023/01/20 04:50:23;;;;;;;63.78;34.60;;;0.00;99.90;;;;;;5017815;28;20326;-63
2023/01/20 04:52:52;;;;;;;60.78;34.28;;;0.00;99.90;;;;;;5000979;28;20103;-63
2023/01/20 04:55:18;;;;;;;58.88;34.88;;;-0.10;99.90;;;;;;5035967;28;20147;-63
2023/01/20 04:57:46;;;;;;;54.53;32.60;;;0.00;99.90;;;;;;5035401;28;20468;-64
2023/01/20 05:00:18;;;;;;;57.17;30.63;;;-0.10;99.90;;;;;;5016510;28;20114;-63
2023/01/20 05:02:44;;;;;;;56.60;33.15;;;0.10;99.90;;;;;;5035276;28;20126;-63
2023/01/20 05:05:10;;;;;;;55.75;32.08;;;0.10;99.90;;;;;;5035716;28;20301;-63
2023/01/20 05:07:36;;;;;;;53.95;28.17;;;-0.20;99.90;;;;;;5001698;28;20187;-64
2023/01/20 05:10:02;;;;;;;56.78;32.60;;;0.00;99.90;;;;;;5014975;28;20053;-65
2023/01/20 05:12:28;;;;;;;59.45;33.75;;;-0.30;99.90;;;;;;5031931;28;20048;-64
2023/01/20 05:14:53;;;;;;;62.60;34.60;;;-0.30;99.90;;;;;;5013147;28;20052;-64
2023/01/20 05:17:19;;;;;;;65.53;35.75;;;-0.30;99.90;;;;;;4996244;28;20050;-65
2023/01/20 05:19:45;;;;;;;65.05;34.42;;;-0.10;99.90;;;;;;4996025;28;20506;-63
2023/01/20 05:22:10;;;;;;;64.40;33.85;;;-0.20;99.90;;;;;;4996792;28;20052;-64
2023/01/20 05:24:36;;;;;;;65.22;34.83;;;-0.30;99.90;;;;;;5013648;28;20045;-63
2023/01/20 05:27:02;;;;;;;64.95;32.45;;;-0.20;99.90;;;;;;4996276;28;20053;-63
2023/01/20 05:29:28;;;;;;;77.47;35.53;;;-0.30;99.90;;;;;;5030549;28;20090;-64
2023/01/20 05:31:54;;;;;;;81.40;35.78;;;-0.30;99.90;;;;;;4997963;28;20036;-63
2023/01/20 05:34:20;;;;;;;79.32;33.35;;;-0.40;99.90;;;;;;4996014;28;20057;-64
2023/01/20 05:36:49;;;;;;;79.50;32.03;;;-0.30;99.90;;;;;;5030890;28;20326;-63
2023/01/20 05:39:15;;;;;;;87.55;34.50;;;-0.30;99.90;;;;;;5013177;28;20655;-64
2023/01/20 05:41:40;;;;;;;85.93;34.45;;;-0.40;99.90;;;;;;4979601;28;20033;-63
2023/01/20 05:44:07;;;;;;;74.10;31.08;;;-0.50;99.90;;;;;;5011719;28;20091;-64
2023/01/20 05:46:33;;;;;;;82.82;32.83;;;-0.40;99.90;;;;;;5013176;28;20045;-63
2023/01/20 05:48:59;;;;;;;73.35;30.50;;;-0.50;99.90;;;;;;5001803;28;20131;-63
2023/01/20 05:51:24;;;;;;;81.20;33.95;;;-0.40;99.90;;;;;;5011608;28;20325;-63
2023/01/20 05:53:50;;;;;;;88.95;36.15;;;-0.40;99.90;;;;;;5013240;28;20349;-62
2023/01/20 05:56:16;;;;;;;84.53;34.33;;;-0.40;99.90;;;;;;4981429;28;20053;-63
2023/01/20 05:58:41;;;;;;;70.18;28.95;;;-0.40;99.90;;;;;;5012276;28;20048;-63
2023/01/20 06:01:10;;;;;;;76.75;32.58;;;-0.30;99.90;;;;;;4996548;28;20042;-63
2023/01/20 06:03:36;;;;;;;74.07;30.00;;;-0.40;99.90;;;;;;4995947;28;20144;-64
2023/01/20 06:06:05;;;;;;;75.63;31.23;;;-0.50;99.90;;;;;;4983754;28;20639;-63
2023/01/20 06:08:30;;;;;;;74.03;31.08;;;-0.50;99.90;;;;;;5034895;28;20076;-63
2023/01/20 06:10:56;;;;;;;74.28;31.00;;;-0.20;99.90;;;;;;5035101;28;20045;-63
2023/01/20 06:13:22;;;;;;;65.40;28.50;;;-0.50;99.90;;;;;;5015777;28;20519;-62
2023/01/20 06:15:54;;;;;;;70.53;28.25;;;-0.40;99.90;;;;;;5014182;28;20191;-64
2023/01/20 06:18:21;;;;;;;65.13;26.83;;;-0.40;99.90;;;;;;5013258;28;20123;-64
2023/01/20 06:20:47;;;;;;;73.30;30.77;;;-0.30;99.90;;;;;;5008048;28;20398;-64
2023/01/20 06:23:13;;;;;;;74.00;30.23;;;-0.50;99.90;;;;;;5013180;28;20114;-65
2023/01/20 06:25:39;;;;;;;70.38;29.13;;;-0.20;99.90;;;;;;5031143;28;20040;-63
2023/01/20 06:28:05;;;;;;;66.05;26.75;;;-0.20;99.90;;;;;;5030798;28;20545;-62
2023/01/20 06:30:30;;;;;;;63.33;25.90;;;-0.40;99.90;;;;;;5013192;28;20950;-62
2023/01/20 06:32:56;;;;;;;71.35;30.45;;;-0.20;99.90;;;;;;5028897;28;20083;-63
2023/01/20 06:35:23;;;;;;;60.50;28.33;;;-0.50;99.90;;;;;;5033036;28;21004;-63
2023/01/20 06:37:49;;;;;;;55.20;23.45;;;-0.40;99.90;;;;;;5035452;28;20124;-63
2023/01/20 06:40:15;;;;;;;50.95;23.77;;;-0.20;99.90;;;;;;5036742;28;20033;-63
2023/01/20 06:42:40;;;;;;;58.72;26.77;;;-0.30;99.90;;;;;;5035143;28;20128;-63
2023/01/20 06:45:07;;;;;;;62.78;27.70;;;-0.40;99.90;;;;;;5018647;28;20049;-63
2023/01/20 06:47:32;;;;;;;64.72;28.33;;;-0.20;99.90;;;;;;5034259;28;20051;-63
2023/01/20 06:49:58;;;;;;;63.95;28.10;;;-0.30;99.90;;;;;;5034991;28;20044;-63
2023/01/20 06:52:24;;;;;;;60.80;27.73;;;-0.40;99.90;;;;;;5036101;28;20041;-64
2023/01/20 06:54:49;;;;;;;57.75;27.85;;;-0.40;99.90;;;;;;5035031;28;20203;-62
2023/01/20 06:57:15;;;;;;;54.25;25.40;;;-0.50;99.90;;;;;;4989462;28;20151;-64
2023/01/20 06:59:41;;;;;;;59.97;27.92;;;-0.50;99.90;;;;;;5035372;28;20049;-64
2023/01/20 07:02:10;;;;;;;55.70;25.20;;;-0.20;99.90;;;;;;5032565;28;20170;-64
2023/01/20 07:04:36;;;;;;;52.25;25.05;;;-0.40;99.90;;;;;;5011212;28;20084;-65
2023/01/20 07:07:02;;;;;;;54.05;26.67;;;-0.50;99.90;;;;;;5010042;28;20132;-65
2023/01/20 07:09:27;;;;;;;55.30;25.90;;;-0.50;99.90;;;;;;5029069;28;20032;-64
2023/01/20 07:11:54;;;;;;;51.65;25.13;;;-0.30;99.90;;;;;;4996123;28;20098;-63
2023/01/20 07:14:19;;;;;;;46.92;22.35;;;-0.40;99.90;;;;;;5011538;28;20330;-64
2023/01/20 07:16:46;;;;;;;52.50;26.23;;;-0.30;99.90;;;;;;5030362;28;20049;-65
2023/01/20 07:19:11;;;;;;;49.03;24.02;;;-0.40;99.90;;;;;;5010844;28;20048;-64
2023/01/20 07:21:37;;;;;;;47.35;24.15;;;-0.30;99.90;;;;;;4994909;28;20045;-65
2023/01/20 07:24:03;;;;;;;47.33;24.27;;;-0.50;99.90;;;;;;5030318;28;20069;-65
2023/01/20 07:26:30;;;;;;;50.03;25.60;;;-0.40;99.90;;;;;;5029508;28;20044;-64
2023/01/20 07:28:57;;;;;;;49.45;25.35;;;-0.50;99.90;;;;;;5011741;28;20090;-64
2023/01/20 07:31:25;;;;;;;47.78;25.30;;;-0.40;99.90;;;;;;5030769;28;20099;-64
2023/01/20 07:33:53;;;;;;;44.92;22.83;;;-0.40;99.90;;;;;;5012193;28;20708;-62
2023/01/20 07:36:19;;;;;;;45.20;24.30;;;-0.40;99.90;;;;;;4994724;28;20049;-63
2023/01/20 07:38:52;;;;;;;47.42;24.65;;;-0.50;99.90;;;;;;5011661;28;20138;-64
2023/01/20 07:41:18;;;;;;;45.78;25.27;;;-0.40;99.90;;;;;;5011952;28;20063;-63
2023/01/20 07:43:46;;;;;;;43.03;21.77;;;-0.20;99.90;;;;;;4994998;28;20041;-63
2023/01/20 07:46:12;;;;;;;37.83;21.85;;;-0.20;99.90;;;;;;5013838;28;20045;-64
2023/01/20 07:48:38;;;;;;;42.03;23.98;;;-0.40;99.90;;;;;;4995690;28;20127;-64
2023/01/20 07:51:08;;;;;;;41.63;25.02;;;-0.20;99.90;;;;;;5029134;28;20055;-64
2023/01/20 07:53:39;;;;;;;39.40;24.55;;;-0.40;99.90;;;;;;5027963;28;20041;-64
2023/01/20 07:56:26;;;;;;;42.72;24.35;;;-0.40;99.90;;;;;;5029297;28;20631;-64
2023/01/20 07:58:56;;;;;;;42.05;24.48;;;-0.20;99.90;;;;;;5014242;28;20048;-63
2023/01/20 08:01:27;;;;;;;42.03;25.27;;;-0.10;99.90;;;;;;5013609;28;20719;-63
2023/01/20 08:03:53;;;;;;;45.00;26.95;;;-0.30;99.90;;;;;;5014706;28;20045;-63
2023/01/20 08:06:21;;;;;;;38.95;21.50;;;-0.30;99.90;;;;;;5014500;28;20939;-63
2023/01/20 08:08:47;;;;;;;43.75;25.63;;;-0.30;99.90;;;;;;4998561;28;20323;-64
2023/01/20 08:11:15;;;;;;;43.65;24.60;;;-0.30;99.90;;;;;;5014197;28;20045;-63
2023/01/20 08:13:41;;;;;;;40.28;22.48;;;-0.10;99.90;;;;;;4997496;28;20095;-64
2023/01/20 08:16:09;;;;;;;38.97;23.00;;;-0.20;99.90;;;;;;5031669;28;20397;-63
2023/01/20 08:18:35;;;;;;;46.13;26.88;;;-0.30;99.90;;;;;;5014259;28;20402;-63
2023/01/20 08:21:07;;;;;;;45.47;26.67;;;-0.20;99.90;;;;;;4998549;28;20572;-63
2023/01/20 08:23:36;;;;;;;42.83;26.25;;;0.00;99.90;;;;;;5013657;28;20598;-64
2023/01/20 08:26:04;;;;;;;47.60;27.00;;;0.00;99.90;;;;;;4981195;28;20406;-63
2023/01/20 08:28:31;;;;;;;46.40;26.50;;;-0.10;99.90;;;;;;5014202;28;20053;-63
2023/01/20 08:31:16;;;;;;;43.70;23.02;;;0.00;99.90;;;;;;5031849;28;20040;-63
2023/01/20 08:33:42;;;;;;;48.47;27.08;;;-0.10;99.90;;;;;;4997398;28;20065;-63
2023/01/20 08:36:18;;;;;;;52.47;29.10;;;0.10;99.90;;;;;;5014213;28;20147;-64
2023/01/20 08:38:44;;;;;;;49.30;27.80;;;0.00;99.90;;;;;;5013538;28;20219;-63
2023/01/20 08:41:16;;;;;;;54.63;28.17;;;0.10;99.90;;;;;;5013955;28;20099;-65
2023/01/20 08:43:42;;;;;;;41.85;23.48;;;0.20;99.90;;;;;;5014066;28;20076;-64
2023/01/20 08:46:10;;;;;;;49.85;26.42;;;0.00;99.90;;;;;;5032469;28;20064;-64
2023/01/20 08:48:37;;;;;;;44.50;24.73;;;-0.10;99.90;;;;;;5013424;28;20072;-63
2023/01/20 08:51:06;;;;;;;48.42;28.08;;;0.00;99.90;;;;;;5013769;28;20044;-63
2023/01/20 08:53:32;;;;;;;44.65;24.85;;;-0.10;99.90;;;;;;5013676;28;20045;-63
2023/01/20 08:56:00;;;;;;;49.63;29.35;;;-0.10;99.90;;;;;;5032730;28;20301;-62
2023/01/20 08:58:27;;;;;;;51.65;29.23;;;0.20;99.90;;;;;;5013978;28;20051;-63
2023/01/20 09:00:53;;;;;;;45.85;28.25;;;0.10;99.90;;;;;;5031380;28;20585;-62
2023/01/20 09:03:19;;;;;;;50.03;30.60;;;0.20;99.90;;;;;;5014123;28;20087;-62
2023/01/20 09:05:45;;;;;;;50.63;29.50;;;0.10;99.90;;;;;;5031830;28;20120;-62
2023/01/20 09:08:11;;;;;;;51.13;28.92;;;0.30;99.90;;;;;;5032344;28;20305;-62
2023/01/20 09:10:37;;;;;;;51.58;29.40;;;0.10;99.90;;;;;;5014636;28;20053;-62
2023/01/20 09:13:02;;;;;;;51.60;30.27;;;0.10;99.90;;;;;;5014146;28;20037;-63
2023/01/20 09:15:28;;;;;;;51.67;30.20;;;0.20;99.90;;;;;;5014164;28;20393;-64
2023/01/20 09:17:54;;;;;;;49.10;29.65;;;0.10;99.90;;;;;;5015200;28;20049;-63
2023/01/20 09:20:19;;;;;;;54.13;31.17;;;0.20;99.90;;;;;;5014008;28;20438;-63
2023/01/20 09:22:45;;;;;;;51.63;30.50;;;0.30;99.90;;;;;;4997393;28;20669;-64
2023/01/20 09:25:11;;;;;;;49.88;27.45;;;0.40;99.90;;;;;;4997299;28;20037;-64
2023/01/20 09:27:37;;;;;;;49.67;26.65;;;0.40;99.90;;;;;;5015802;28;20045;-63
2023/01/20 09:30:03;;;;;;;52.22;30.98;;;0.40;99.90;;;;;;5035446;28;20045;-62
2023/01/20 09:32:29;;;;;;;57.60;32.17;;;0.40;99.90;;;;;;5016985;28;20358;-64
2023/01/20 09:34:55;;;;;;;52.00;31.67;;;0.50;99.90;;;;;;5015828;28;20053;-62
2023/01/20 09:43:54;;;;;;;50.55;30.20;;;0.40;99.90;;;;;;5034918;28;20495;-63
2023/01/20 09:46:29;;;;;;;50.85;31.63;;;0.50;99.90;;;;;;5016861;28;20053;-64
2023/01/20 09:55:16;;;;;;;50.08;30.98;;;0.60;99.90;;;;;;5034991;28;20343;-62
2023/01/20 09:57:47;;;;;;;54.65;33.97;;;0.70;99.90;;;;;;5016769;28;20076;-64
2023/01/20 10:00:24;;;;;;;54.83;34.13;;;0.70;99.90;;;;;;5033199;28;20044;-63
2023/01/20 10:02:56;;;;;;;51.03;32.80;;;0.80;99.90;;;;;;4999891;28;20150;-63
2023/01/20 10:05:32;;;;;;;51.10;33.45;;;0.90;99.90;;;;;;5017463;28;20045;-62
2023/01/20 10:08:15;;;;;;;51.30;31.55;;;0.90;99.90;;;;;;5019687;28;20237;-63
2023/01/20 10:11:03;;;;;;;50.92;32.38;;;0.80;99.90;;;;;;5034177;28;20040;-63
2023/01/20 10:13:50;;;;;;;47.50;30.52;;;1.00;99.90;;;;;;5017295;28;20045;-64
2023/01/20 10:16:45;;;;;;;51.92;33.10;;;0.90;99.90;;;;;;5015824;28;20387;-64
2023/01/20 10:19:29;;;;;;;46.50;29.10;;;1.10;99.90;;;;;;5016362;28;20044;-64
2023/01/20 10:22:41;;;;;;;51.90;32.15;;;1.10;99.90;;;;;;5017075;28;20450;-64
2023/01/20 10:25:29;;;;;;;43.38;26.23;;;1.10;99.90;;;;;;4971718;28;20127;-65
2023/01/20 10:28:03;;;;;;;49.40;30.58;;;1.20;99.90;;;;;;4972258;28;20042;-62
2023/01/20 10:30:34;;;;;;;43.10;28.80;;;1.10;99.90;;;;;;5017462;28;20049;-63
2023/01/20 10:33:15;;;;;;;46.70;29.35;;;1.00;99.90;;;;;;4998756;28;20045;-63
2023/01/20 10:35:51;;;;;;;42.13;25.63;;;1.10;99.90;;;;;;5015603;28;20049;-63
2023/01/20 10:38:52;;;;;;;40.15;26.45;;;1.10;99.90;;;;;;5015724;28;20330;-63
2023/01/20 10:41:30;;;;;;;46.80;29.85;;;1.10;55.20;;;;;;4999921;28;20105;-63
2023/01/20 10:43:58;;;;;;;45.80;28.58;;;1.00;99.90;;;;;;5016673;28;20052;-63
2023/01/20 10:46:42;;;;;;;46.05;29.90;;;1.10;99.90;;;;;;5034314;28;20300;-65
2023/01/20 10:49:39;;;;;;;46.13;29.38;;;1.10;88.70;;;;;;5033427;28;20055;-64
2023/01/20 10:52:45;;;;;;;47.67;29.08;;;1.10;92.30;;;;;;5015975;28;20041;-64
2023/01/20 10:55:10;;;;;;;49.47;30.05;;;1.20;99.90;;;;;;5016135;28;20107;-64
2023/01/20 10:57:37;;;;;;;49.58;30.73;;;1.10;99.90;;;;;;5015793;28;20040;-63
2023/01/20 11:00:16;;;;;;;46.20;28.38;;;1.10;38.10;;;;;;4999363;28;20098;-64
2023/01/20 11:02:42;;;;;;;46.10;28.98;;;1.00;13.80;;;;;;5017124;28;20052;-65
2023/01/20 11:05:22;;;;;;;46.47;28.92;;;1.00;78.50;;;;;;5033692;28;20051;-64
2023/01/20 11:07:50;;;;;;;44.15;28.15;;;1.00;81.20;;;;;;5034183;28;20049;-63
2023/01/20 11:10:20;;;;;;;47.53;30.38;;;1.00;99.90;;;;;;5015069;28;20032;-63
2023/01/20 11:12:50;;;;;;;44.67;28.77;;;1.00;46.90;;;;;;5015877;28;20041;-63
2023/01/20 11:15:31;;;;;;;43.20;29.13;;;1.00;49.30;;;;;;5033471;28;20408;-64
2023/01/20 11:18:15;;;;;;;43.53;27.55;;;0.90;37.20;;;;;;5015883;28;20045;-65
2023/01/20 11:20:54;;;;;;;46.25;29.83;;;1.00;1.00;;;;;;5014484;28;20053;-63
2023/01/20 11:23:21;;;;;;;47.15;30.80;;;1.10;1.00;;;;;;5015737;28;20530;-64
2023/01/20 11:25:58;;;;;;;46.42;31.08;;;1.10;6.60;;;;;;5015510;28;20119;-65
2023/01/20 11:28:24;;;;;;;49.67;31.58;;;1.00;67.80;;;;;;5015513;28;20671;-64
2023/01/20 11:30:54;;;;;;;49.78;31.52;;;1.00;51.30;;;;;;5014972;28;20438;-65
2023/01/20 11:33:24;;;;;;;47.17;31.05;;;1.10;1.00;;;;;;5031893;28;20059;-63
2023/01/20 11:36:05;;;;;;;52.92;32.47;;;1.00;11.10;;;;;;5033505;28;20110;-63
2023/01/20 11:38:47;;;;;;;47.33;32.55;;;1.10;5.40;;;;;;5015314;28;20190;-62
2023/01/20 11:41:27;;;;;;;50.03;33.15;;;1.10;16.60;;;;;;5015914;28;20056;-64
2023/01/20 11:43:58;;;;;;;47.50;30.77;;;1.10;1.00;;;;;;5015406;28;20049;-64
2023/01/20 11:46:36;;;;;;;43.67;29.35;;;1.10;1.00;;;;;;5032341;28;20090;-63
2023/01/20 11:49:15;;;;;;;46.80;29.90;;;1.00;1.00;;;;;;5031603;28;20039;-63
2023/01/20 11:51:52;;;;;;;47.67;31.27;;;1.00;1.00;;;;;;5032744;28;20045;-64
2023/01/20 11:54:26;;;;;;;49.72;31.23;;;1.00;1.00;;;;;;5015389;28;20131;-62
2023/01/20 11:57:00;;;;;;;49.00;32.83;;;1.10;1.00;;;;;;4999175;28;20279;-65
2023/01/20 11:59:28;;;;;;;48.70;31.05;;;1.10;1.00;;;;;;5015253;28;20122;-63
2023/01/20 12:02:00;;;;;;;51.88;31.98;;;1.10;1.00;;;;;;5014887;28;20056;-64
2023/01/20 12:04:28;;;;;;;50.15;30.38;;;1.20;10.00;;;;;;5015006;28;20045;-63
2023/01/20 12:07:00;;;;;;;47.58;30.00;;;1.20;1.00;;;;;;5015283;28;20733;-63
2023/01/20 12:09:35;;;;;;;42.45;28.45;;;1.20;3.80;;;;;;5015317;28;20169;-63
2023/01/20 12:12:10;;;;;;;44.63;29.30;;;1.20;1.00;;;;;;5033207;28;20045;-64
2023/01/20 12:14:42;;;;;;;48.90;30.75;;;1.20;1.00;;;;;;4998893;28;20341;-64
2023/01/20 12:17:14;;;;;;;45.53;29.70;;;1.20;1.00;;;;;;5032318;28;20372;-64
2023/01/20 12:20:05;;;;;;;47.70;31.95;;;1.20;1.00;;;;;;4998344;28;20481;-64
2023/01/20 12:23:08;;;;;;;47.10;29.05;;;1.20;1.00;;;;;;5015160;28;20564;-63
2023/01/20 12:25:47;;;;;;;47.40;30.97;;;1.30;1.00;;;;;;5014066;28;20047;-63
2023/01/20 12:29:01;;;;;;;47.38;31.13;;;1.30;1.00;;;;;;4998145;28;20064;-63
2023/01/20 12:31:28;;;;;;;47.60;30.70;;;1.20;1.00;;;;;;5017022;28;20469;-63
2023/01/20 12:34:09;;;;;;;46.67;30.00;;;1.40;1.00;;;;;;5031692;28;20114;-64
2023/01/20 12:36:48;;;;;;;46.58;29.27;;;1.30;1.00;;;;;;5014711;28;20045;-63
2023/01/20 12:39:51;;;;;;;45.88;30.40;;;1.30;1.00;;;;;;5014737;28;20061;-63
2023/01/20 12:42:35;;;;;;;44.55;29.20;;;1.40;1.00;;;;;;5032311;28;20533;-64
2023/01/20 12:45:25;;;;;;;46.88;30.60;;;1.40;1.00;;;;;;5013878;28;20941;-64
2023/01/20 12:48:30;;;;;;;44.35;29.48;;;1.40;1.00;;;;;;5014822;28;20041;-63
2023/01/20 12:51:12;;;;;;;42.22;27.60;;;1.40;1.00;;;;;;4981627;28;20053;-64
2023/01/20 12:53:50;;;;;;;46.40;29.83;;;1.40;1.00;;;;;;5013522;28;20049;-64
2023/01/20 12:56:31;;;;;;;48.13;29.30;;;1.40;1.00;;;;;;5032187;28;20072;-63
2023/01/20 12:59:35;;;;;;;43.42;28.52;;;1.40;99.90;;;;;;5014501;28;20045;-62
2023/01/20 13:02:43;;;;;;;44.25;29.45;;;1.40;99.90;;;;;;5016813;28;20056;-63
2023/01/20 13:05:39;;;;;;;47.97;30.17;;;1.40;99.90;;;;;;5035871;28;20388;-62
2023/01/20 13:08:21;;;;;;;43.75;27.20;;;1.40;99.90;;;;;;5018176;28;20132;-63
2023/01/20 13:11:18;;;;;;;44.45;26.90;;;1.30;99.90;;;;;;5035916;28;20044;-64